Home   Weather   Germany   Osterode am Harz   Past weeks
Flag for Germany

Past Weather in Osterode am Harz, Lower Saxony, Germany — Yesterday and Last 2 Weeks

Currently: 52 °F. Passing clouds. (Weather station: Braunschweig Wolfsburg, Germany). See more current weather

Past Weather in Osterode am Harz — Graph

°F

Osterode am Harz Temperature Yesterday

Maximum temperature yesterday: 48 °F (at 2:50 pm)
Minimum temperature yesterday: 32 °F (at 9:50 pm)
Average temperature yesterday: 40 °F

High & Low Weather Summary for the Past Weeks

 TemperatureHumidityPressure
High66 °F (Feb 21, 12:50 pm)100% (Feb 15, 5:20 pm)30.69 "Hg (Feb 15, 5:20 pm)
Low32 °F (Feb 15, 3:50 pm)26% (Feb 21, 2:50 pm)29.77 "Hg (Feb 18, 8:50 pm)
Average46 °F76%30.27 "Hg
* Reported Feb 15 2:20 pm — Mar 2 2:20 pm, Osterode am Harz. Weather by CustomWeather, © 2021

Note: Actual official high and low records may vary slightly from our data, if they occured in-between our weather recording intervals... More about our weather records

Osterode am Harz Weather History for the Previous 24 Hours

Scroll right to see more
 ConditionsComfort  
Time TempWeatherWind HumidityBarometerVisibility
2:20 pm
Tue, Mar 2
48 °FPassing clouds.5 mph94%30.51 "HgN/A
1:50 pm45 °FPassing clouds.5 mph100%30.51 "HgN/A
12:50 pm41 °FScattered clouds.5 mph100%30.54 "Hg5 mi
12:20 pm37 °FFog.5 mph100%30.54 "Hg3 mi
11:50 am36 °FFog.3 mph100%30.54 "Hg2 mi
11:20 am36 °FFog.3 mph93%30.54 "Hg1 mi
10:20 am32 °FSleet. Cloudy.2 mph100%30.54 "Hg1 mi
9:50 am32 °FChilly.No wind100%30.54 "Hg0 mi
9:20 am32 °FIce fog.5 mph100%30.54 "Hg0 mi
8:20 am32 °FIce fog.5 mph93%30.54 "Hg0 mi
7:50 am32 °FFog.3 mph100%30.54 "Hg0 mi
7:20 am32 °FFog.3 mph100%30.54 "Hg0 mi
6:50 am32 °FChilly.3 mph100%30.54 "Hg1 mi
6:20 am32 °FDense fog.3 mph100%30.54 "Hg0 mi
5:50 am32 °FDense fog.5 mph100%30.54 "Hg0 mi
5:20 am32 °FDense fog.5 mph93%30.54 "Hg1 mi
4:50 am32 °FDense fog.5 mph100%30.54 "Hg1 mi
4:20 am32 °FDense fog.5 mph100%30.54 "Hg0 mi
3:20 am32 °FDense fog.5 mph100%30.54 "Hg0 mi
2:50 am34 °FDense fog.3 mph100%30.54 "Hg0 mi
2:20 am34 °FDense fog.5 mph100%30.54 "Hg1 mi
1:50 am34 °FDense fog.5 mph100%30.54 "Hg1 mi
1:20 am34 °FDense fog.3 mph100%30.54 "Hg1 mi
12:50 am34 °FDense fog.3 mph100%30.54 "Hg1 mi
12:20 am34 °FDense fog.7 mph100%30.54 "Hg1 mi
11:50 pm
Mon, Mar 1
34 °FDense fog.7 mph100%30.54 "Hg1 mi
11:20 pm36 °FDense fog.6 mph100%30.54 "Hg0 mi
10:50 pm34 °FDense fog.3 mph100%30.54 "Hg0 mi
10:20 pm34 °FDense fog.7 mph100%30.54 "Hg0 mi
9:50 pm32 °FDense fog.3 mph100%30.54 "Hg1 mi
9:20 pm36 °FClear.3 mph100%30.54 "Hg3 mi
8:50 pm36 °FClear.No wind100%30.54 "Hg5 mi
8:20 pm37 °FClear.No wind100%30.54 "Hg6 mi
7:50 pm36 °FClear.No wind100%30.54 "HgN/A
7:20 pm37 °FClear.No wind93%30.54 "HgN/A
6:50 pm41 °FClear.No wind81%30.54 "Hg10 mi
6:20 pm43 °FClear.5 mph76%30.54 "Hg10 mi
5:50 pm45 °FSunny.3 mph71%30.54 "Hg10 mi
5:20 pm48 °FSunny.5 mph62%30.54 "Hg10 mi
4:50 pm48 °FSunny.5 mph62%30.54 "Hg10 mi
4:20 pm48 °FPassing clouds.5 mph62%30.54 "HgN/A
3:50 pm48 °FSunny.2 mph62%30.54 "Hg10 mi
3:20 pm48 °FSunny.3 mph62%30.54 "Hg10 mi
Weather by CustomWeather, © 2021

See weather overview